IGO7674 VECC-VERC
Flight info
| Callsign | IGO7674 |
|---|---|
| Flight time | 0h 40m |
| Altitude | 30000 |
| Route | JJS2E JJS DCT FD31 DCT ML31 |
| Aircraft | A320/M-SDE3FGHIRWY/LB1 |
Departure
| Time | 2026-05-08 13:46 |
|---|---|
| Airport | Netaji Subhash Chandra Bose International Airport (VECC) |
Arrival
| Time | 2026-05-08 14:26 |
|---|---|
| Airport | Birsa Munda Airport (VERC) |
| Time | Latitude | Longitude | Altitude | Speed | Heading |
|---|---|---|---|---|---|
| 2026-05-08 13:31 | 22.64388 | 88.44070 | 29 ft | 0 kts | 277° |
| 2026-05-08 13:39 | 22.64386 | 88.44087 | 29 ft | 2 kts | 275° |
| 2026-05-08 13:39 | 22.64385 | 88.44105 | 29 ft | 2 kts | 273° |
| 2026-05-08 13:39 | 22.64384 | 88.44123 | 29 ft | 2 kts | 269° |
| 2026-05-08 13:39 | 22.64385 | 88.44140 | 15 ft | 2 kts | 262° |
| 2026-05-08 13:40 | 22.64388 | 88.44158 | 8 ft | 2 kts | 238° |
| 2026-05-08 13:40 | 22.64400 | 88.44170 | 37 ft | 2 kts | 190° |
| 2026-05-08 13:40 | 22.64407 | 88.44171 | 35 ft | 0 kts | 184° |
| 2026-05-08 13:42 | 22.64398 | 88.44170 | 31 ft | 5 kts | 186° |
| 2026-05-08 13:42 | 22.64344 | 88.44163 | 29 ft | 10 kts | 187° |
| 2026-05-08 13:42 | 22.64264 | 88.44152 | 29 ft | 13 kts | 187° |
| 2026-05-08 13:42 | 22.64171 | 88.44140 | 29 ft | 7 kts | 186° |
| 2026-05-08 13:43 | 22.64110 | 88.44133 | 29 ft | 10 kts | 186° |
| 2026-05-08 13:43 | 22.64031 | 88.44132 | 29 ft | 12 kts | 149° |
| 2026-05-08 13:43 | 22.64008 | 88.44226 | 28 ft | 15 kts | 97° |
| 2026-05-08 13:43 | 22.64008 | 88.44299 | 29 ft | 6 kts | 76° |
| 2026-05-08 13:44 | 22.64022 | 88.44355 | 29 ft | 9 kts | 74° |
| 2026-05-08 13:44 | 22.64064 | 88.44415 | 30 ft | 11 kts | 19° |
| 2026-05-08 13:44 | 22.64152 | 88.44422 | 30 ft | 14 kts | 3° |
| 2026-05-08 13:44 | 22.64229 | 88.44494 | 29 ft | 17 kts | 68° |
| 2026-05-08 13:45 | 22.64260 | 88.44576 | 29 ft | 11 kts | 68° |
| 2026-05-08 13:45 | 22.64312 | 88.44648 | 29 ft | 14 kts | 16° |
| 2026-05-08 13:45 | 22.64342 | 88.44651 | 28 ft | 2 kts | 7° |
| 2026-05-08 13:45 | 22.64436 | 88.44663 | 28 ft | 44 kts | 6° |
| 2026-05-08 13:46 | 22.65006 | 88.44730 | 27 ft | 116 kts | 6° |
| 2026-05-08 13:46 | 22.65997 | 88.44846 | 39 ft | 167 kts | 6° |
| 2026-05-08 13:46 | 22.67165 | 88.45006 | 581 ft | 179 kts | 8° |
| 2026-05-08 13:46 | 22.68486 | 88.45186 | 967 ft | 204 kts | 7° |
| 2026-05-08 13:47 | 22.69970 | 88.45368 | 1332 ft | 226 kts | 7° |
| 2026-05-08 13:47 | 22.71621 | 88.45564 | 1739 ft | 251 kts | 7° |
| 2026-05-08 13:47 | 22.73411 | 88.45779 | 2468 ft | 263 kts | 7° |
| 2026-05-08 13:47 | 22.75254 | 88.46002 | 3389 ft | 269 kts | 6° |
| 2026-05-08 13:48 | 22.77127 | 88.46188 | 4315 ft | 273 kts | 358° |
| 2026-05-08 13:48 | 22.78977 | 88.45698 | 5201 ft | 277 kts | 331° |
| 2026-05-08 13:48 | 22.80433 | 88.44357 | 6120 ft | 278 kts | 304° |
| 2026-05-08 13:48 | 22.81363 | 88.42524 | 7022 ft | 279 kts | 296° |
| 2026-05-08 13:49 | 22.82235 | 88.40641 | 7937 ft | 281 kts | 296° |
| 2026-05-08 13:49 | 22.83120 | 88.38741 | 8840 ft | 284 kts | 296° |
| 2026-05-08 13:49 | 22.84007 | 88.36853 | 9723 ft | 286 kts | 296° |
| 2026-05-08 13:49 | 22.84890 | 88.34828 | 10201 ft | 305 kts | 290° |
| 2026-05-08 13:50 | 22.85427 | 88.32558 | 10518 ft | 324 kts | 277° |
| 2026-05-08 13:50 | 22.85718 | 88.30110 | 11154 ft | 331 kts | 277° |
| 2026-05-08 13:50 | 22.86028 | 88.27626 | 11901 ft | 334 kts | 277° |
| 2026-05-08 13:50 | 22.86352 | 88.25116 | 12655 ft | 338 kts | 277° |
| 2026-05-08 13:51 | 22.86685 | 88.22581 | 13411 ft | 341 kts | 277° |
| 2026-05-08 13:51 | 22.87021 | 88.20025 | 14090 ft | 344 kts | 277° |
| 2026-05-08 13:51 | 22.87358 | 88.17445 | 14758 ft | 347 kts | 277° |
| 2026-05-08 13:51 | 22.87692 | 88.14847 | 15437 ft | 349 kts | 276° |
| 2026-05-08 13:52 | 22.88026 | 88.12239 | 16122 ft | 351 kts | 276° |
| 2026-05-08 13:52 | 22.88361 | 88.09621 | 16801 ft | 353 kts | 276° |
| 2026-05-08 13:52 | 22.88698 | 88.06967 | 17469 ft | 355 kts | 276° |
| 2026-05-08 13:52 | 22.89034 | 88.04312 | 18138 ft | 357 kts | 276° |
| 2026-05-08 13:53 | 22.89374 | 88.01625 | 18707 ft | 360 kts | 276° |
| 2026-05-08 13:53 | 22.89716 | 87.98930 | 19263 ft | 363 kts | 276° |
| 2026-05-08 13:53 | 22.90064 | 87.96202 | 19822 ft | 366 kts | 276° |
| 2026-05-08 13:53 | 22.90359 | 87.93459 | 20364 ft | 368 kts | 274° |
| 2026-05-08 13:54 | 22.90563 | 87.90690 | 20909 ft | 370 kts | 272° |
| 2026-05-08 13:54 | 22.90714 | 87.87886 | 21428 ft | 373 kts | 271° |
| 2026-05-08 13:54 | 22.90844 | 87.85075 | 21944 ft | 375 kts | 271° |
| 2026-05-08 13:54 | 22.90977 | 87.82230 | 22440 ft | 378 kts | 271° |
| 2026-05-08 13:55 | 22.91123 | 87.79370 | 22951 ft | 381 kts | 271° |
| 2026-05-08 13:55 | 22.91283 | 87.76497 | 23437 ft | 384 kts | 271° |
| 2026-05-08 13:55 | 22.91636 | 87.70682 | 24267 ft | 388 kts | 272° |
| 2026-05-08 13:56 | 22.91818 | 87.67759 | 24699 ft | 389 kts | 272° |
| 2026-05-08 13:56 | 22.91999 | 87.64831 | 25132 ft | 390 kts | 272° |
| 2026-05-08 13:56 | 22.92177 | 87.61896 | 25562 ft | 391 kts | 272° |
| 2026-05-08 13:56 | 22.92349 | 87.58990 | 25977 ft | 392 kts | 272° |
| 2026-05-08 13:57 | 22.92522 | 87.56036 | 26391 ft | 393 kts | 272° |
| 2026-05-08 13:57 | 22.92695 | 87.53073 | 26791 ft | 394 kts | 272° |
| 2026-05-08 13:57 | 22.92866 | 87.50104 | 27181 ft | 395 kts | 272° |
| 2026-05-08 13:57 | 22.93037 | 87.47127 | 27566 ft | 396 kts | 272° |
| 2026-05-08 13:58 | 22.93211 | 87.44138 | 27950 ft | 398 kts | 272° |
| 2026-05-08 13:58 | 22.93384 | 87.41140 | 28325 ft | 399 kts | 272° |
| 2026-05-08 13:58 | 22.93557 | 87.38123 | 28704 ft | 401 kts | 272° |
| 2026-05-08 13:58 | 22.93731 | 87.35092 | 29089 ft | 403 kts | 272° |
| 2026-05-08 13:59 | 22.93905 | 87.32053 | 29466 ft | 406 kts | 272° |
| 2026-05-08 13:59 | 22.94082 | 87.28986 | 29814 ft | 408 kts | 272° |
| 2026-05-08 13:59 | 22.94258 | 87.25925 | 29900 ft | 401 kts | 272° |
| 2026-05-08 13:59 | 22.94457 | 87.22919 | 29911 ft | 390 kts | 273° |
| 2026-05-08 14:00 | 22.94669 | 87.20034 | 29911 ft | 387 kts | 273° |
| 2026-05-08 14:00 | 22.95114 | 87.14223 | 29921 ft | 387 kts | 273° |
| 2026-05-08 14:01 | 22.95551 | 87.08389 | 29925 ft | 388 kts | 272° |
| 2026-05-08 14:01 | 22.95972 | 87.02537 | 29935 ft | 390 kts | 272° |
| 2026-05-08 14:02 | 22.96391 | 86.96664 | 29927 ft | 391 kts | 272° |
| 2026-05-08 14:02 | 22.96808 | 86.90776 | 29927 ft | 392 kts | 272° |
| 2026-05-08 14:03 | 22.97228 | 86.84869 | 29945 ft | 393 kts | 272° |
| 2026-05-08 14:03 | 22.97644 | 86.78947 | 29937 ft | 394 kts | 272° |
| 2026-05-08 14:04 | 22.98057 | 86.73022 | 29906 ft | 393 kts | 272° |
| 2026-05-08 14:04 | 22.98468 | 86.67092 | 29908 ft | 394 kts | 272° |
| 2026-05-08 14:05 | 22.98874 | 86.61164 | 29903 ft | 395 kts | 271° |
| 2026-05-08 14:05 | 22.99266 | 86.55217 | 29905 ft | 395 kts | 269° |
| 2026-05-08 14:06 | 22.98500 | 86.49376 | 29907 ft | 391 kts | 251° |
| 2026-05-08 14:06 | 22.96096 | 86.44110 | 29912 ft | 390 kts | 239° |
| 2026-05-08 14:07 | 22.93304 | 86.39065 | 29896 ft | 390 kts | 239° |
| 2026-05-08 14:07 | 22.91911 | 86.36541 | 29298 ft | 390 kts | 239° |
| 2026-05-08 14:07 | 22.90523 | 86.34025 | 28771 ft | 387 kts | 240° |
| 2026-05-08 14:07 | 22.89148 | 86.31537 | 28272 ft | 383 kts | 239° |
| 2026-05-08 14:08 | 22.87784 | 86.29068 | 27784 ft | 381 kts | 239° |
| 2026-05-08 14:08 | 22.86425 | 86.26608 | 27294 ft | 378 kts | 239° |
| 2026-05-08 14:08 | 22.85077 | 86.24171 | 26832 ft | 376 kts | 239° |
| 2026-05-08 14:08 | 22.84195 | 86.22559 | 26520 ft | 375 kts | 242° |
| 2026-05-08 14:09 | 22.83065 | 86.19012 | 25902 ft | 374 kts | 261° |
| 2026-05-08 14:09 | 22.82967 | 86.17150 | 25598 ft | 374 kts | 271° |
| 2026-05-08 14:09 | 22.83411 | 86.14370 | 25145 ft | 376 kts | 286° |
| 2026-05-08 14:09 | 22.84528 | 86.11808 | 24685 ft | 379 kts | 299° |
| 2026-05-08 14:10 | 22.85932 | 86.09391 | 24228 ft | 378 kts | 300° |
| 2026-05-08 14:10 | 22.87332 | 86.06981 | 23748 ft | 378 kts | 300° |
| 2026-05-08 14:10 | 22.89187 | 86.03778 | 23032 ft | 378 kts | 300° |
| 2026-05-08 14:10 | 22.90578 | 86.01368 | 22539 ft | 376 kts | 300° |
| 2026-05-08 14:11 | 22.91511 | 85.99752 | 22208 ft | 374 kts | 300° |
| 2026-05-08 14:11 | 22.92888 | 85.97365 | 21696 ft | 372 kts | 300° |
| 2026-05-08 14:11 | 22.94252 | 85.94993 | 21194 ft | 370 kts | 300° |
| 2026-05-08 14:11 | 22.95610 | 85.92628 | 20680 ft | 368 kts | 300° |
| 2026-05-08 14:12 | 22.96957 | 85.90281 | 20175 ft | 366 kts | 300° |
| 2026-05-08 14:12 | 22.98306 | 85.87938 | 19667 ft | 364 kts | 300° |
| 2026-05-08 14:12 | 22.99639 | 85.85624 | 19160 ft | 362 kts | 300° |
| 2026-05-08 14:12 | 23.00974 | 85.83306 | 18652 ft | 360 kts | 300° |
| 2026-05-08 14:13 | 23.02294 | 85.81008 | 18135 ft | 358 kts | 300° |
| 2026-05-08 14:13 | 23.03601 | 85.78729 | 17602 ft | 354 kts | 300° |
| 2026-05-08 14:13 | 23.04900 | 85.76464 | 17101 ft | 350 kts | 300° |
| 2026-05-08 14:13 | 23.06176 | 85.74237 | 16629 ft | 346 kts | 300° |
| 2026-05-08 14:14 | 23.07421 | 85.72062 | 16152 ft | 343 kts | 300° |
| 2026-05-08 14:14 | 23.08696 | 85.69836 | 15660 ft | 339 kts | 300° |
| 2026-05-08 14:14 | 23.09937 | 85.67676 | 15190 ft | 336 kts | 300° |
| 2026-05-08 14:14 | 23.11170 | 85.65527 | 14725 ft | 333 kts | 300° |
| 2026-05-08 14:15 | 23.12369 | 85.63429 | 14274 ft | 330 kts | 300° |
| 2026-05-08 14:15 | 23.13576 | 85.61314 | 13817 ft | 328 kts | 300° |
| 2026-05-08 14:15 | 23.14791 | 85.59189 | 13323 ft | 325 kts | 300° |
| 2026-05-08 14:15 | 23.15967 | 85.57137 | 12885 ft | 322 kts | 301° |
| 2026-05-08 14:16 | 23.17142 | 85.55085 | 12442 ft | 319 kts | 301° |
| 2026-05-08 14:16 | 23.18322 | 85.53022 | 11999 ft | 316 kts | 300° |
| 2026-05-08 14:16 | 23.19462 | 85.51025 | 11586 ft | 313 kts | 300° |
| 2026-05-08 14:16 | 23.20578 | 85.49069 | 11425 ft | 293 kts | 300° |
| 2026-05-08 14:17 | 23.21614 | 85.47257 | 11305 ft | 271 kts | 300° |
| 2026-05-08 14:17 | 23.22582 | 85.45560 | 11028 ft | 259 kts | 300° |
| 2026-05-08 14:17 | 23.23521 | 85.43912 | 10574 ft | 255 kts | 300° |
| 2026-05-08 14:17 | 23.24451 | 85.42279 | 10123 ft | 252 kts | 300° |
| 2026-05-08 14:18 | 23.25370 | 85.40664 | 9948 ft | 254 kts | 300° |
| 2026-05-08 14:18 | 23.26372 | 85.39054 | 9266 ft | 260 kts | 306° |
| 2026-05-08 14:18 | 23.27465 | 85.37526 | 8945 ft | 249 kts | 306° |
| 2026-05-08 14:18 | 23.28518 | 85.36052 | 8443 ft | 247 kts | 306° |
| 2026-05-08 14:19 | 23.29565 | 85.34582 | 8117 ft | 244 kts | 306° |
| 2026-05-08 14:19 | 23.30585 | 85.33079 | 8012 ft | 249 kts | 300° |
| 2026-05-08 14:19 | 23.31303 | 85.31354 | 7726 ft | 255 kts | 287° |
| 2026-05-08 14:19 | 23.31864 | 85.29537 | 7489 ft | 246 kts | 287° |
| 2026-05-08 14:20 | 23.32392 | 85.27834 | 7340 ft | 230 kts | 287° |
| 2026-05-08 14:20 | 23.32896 | 85.26221 | 6988 ft | 223 kts | 288° |
| 2026-05-08 14:20 | 23.33394 | 85.24634 | 6609 ft | 219 kts | 287° |
| 2026-05-08 14:20 | 23.33883 | 85.23072 | 6122 ft | 220 kts | 288° |
| 2026-05-08 14:21 | 23.34385 | 85.21480 | 5552 ft | 224 kts | 288° |
| 2026-05-08 14:21 | 23.34895 | 85.19862 | 4977 ft | 228 kts | 288° |
| 2026-05-08 14:21 | 23.35487 | 85.18260 | 4477 ft | 228 kts | 302° |
| 2026-05-08 14:21 | 23.36591 | 85.17112 | 4302 ft | 215 kts | 329° |
| 2026-05-08 14:22 | 23.37975 | 85.16674 | 4234 ft | 205 kts | 356° |
| 2026-05-08 14:22 | 23.39361 | 85.16950 | 4192 ft | 203 kts | 23° |
| 2026-05-08 14:22 | 23.40447 | 85.17836 | 4159 ft | 187 kts | 50° |
| 2026-05-08 14:22 | 23.41041 | 85.19025 | 4107 ft | 175 kts | 73° |
| 2026-05-08 14:23 | 23.41168 | 85.20318 | 4070 ft | 171 kts | 97° |
| 2026-05-08 14:23 | 23.40844 | 85.21542 | 4035 ft | 168 kts | 120° |
| 2026-05-08 14:23 | 23.40165 | 85.22512 | 4008 ft | 159 kts | 139° |
| 2026-05-08 14:23 | 23.39385 | 85.23351 | 3983 ft | 158 kts | 138° |
| 2026-05-08 14:24 | 23.38609 | 85.24192 | 3973 ft | 156 kts | 137° |
| 2026-05-08 14:24 | 23.37846 | 85.25023 | 3935 ft | 156 kts | 138° |
| 2026-05-08 14:24 | 23.37078 | 85.25856 | 3686 ft | 155 kts | 139° |
| 2026-05-08 14:24 | 23.36329 | 85.26668 | 3462 ft | 153 kts | 138° |
| 2026-05-08 14:25 | 23.35571 | 85.27488 | 3238 ft | 151 kts | 138° |
| 2026-05-08 14:25 | 23.34837 | 85.28281 | 3005 ft | 150 kts | 138° |
| 2026-05-08 14:25 | 23.34104 | 85.29075 | 2789 ft | 147 kts | 137° |
| 2026-05-08 14:25 | 23.33386 | 85.29852 | 2548 ft | 143 kts | 135° |
| 2026-05-08 14:26 | 23.32723 | 85.30648 | 2373 ft | 141 kts | 132° |
| 2026-05-08 14:26 | 23.32082 | 85.31439 | 2188 ft | 138 kts | 132° |
| 2026-05-08 14:26 | 23.31553 | 85.32081 | 2125 ft | 75 kts | 131° |
| 2026-05-08 14:26 | 23.31451 | 85.32227 | 2121 ft | 3 kts | 51° |
| 2026-05-08 14:27 | 23.31481 | 85.32241 | 2121 ft | 6 kts | 24° |
| 2026-05-08 14:27 | 23.31516 | 85.32271 | 2123 ft | 8 kts | 47° |
| 2026-05-08 14:27 | 23.31565 | 85.32318 | 2121 ft | 11 kts | 38° |
| 2026-05-08 14:27 | 23.31625 | 85.32373 | 2121 ft | 9 kts | 53° |
| 2026-05-08 14:28 | 23.31640 | 85.32441 | 2120 ft | 7 kts | 39° |
| 2026-05-08 14:28 | 23.31673 | 85.32471 | 2120 ft | 0 kts | 45° |